sensor_id;sensor_type;location;lat;lon;timestamp;pressure;altitude;pressure_sealevel;temperature;humidity
10638;BME280;47007;49.252;8.904;2023-02-14T00:00:05;101709.84;;;1.38;100.00
10638;BME280;47007;49.252;8.904;2023-02-14T00:00:48;101697.97;;;1.32;100.00
10638;BME280;47007;49.252;8.904;2023-02-14T00:01:30;101679.44;;;1.20;100.00
10638;BME280;47007;49.252;8.904;2023-02-14T00:02:12;101702.94;;;1.37;100.00
10638;BME280;47007;49.252;8.904;2023-02-14T00:02:54;101698.72;;;1.34;100.00
10638;BME280;47007;49.252;8.904;2023-02-14T00:03:38;101696.97;;;1.35;100.00
10638;BME280;47007;49.252;8.904;2023-02-14T00:04:20;101705.31;;;1.41;100.00
10638;BME280;47007;49.252;8.904;2023-02-14T00:05:02;101709.53;;;1.44;100.00
10638;BME280;47007;49.252;8.904;2023-02-14T00:05:43;101705.25;;;1.43;100.00
10638;BME280;47007;49.252;8.904;2023-02-14T00:06:25;101712.38;;;1.39;100.00
10638;BME280;47007;49.252;8.904;2023-02-14T00:07:07;101707.50;;;1.33;100.00
10638;BME280;47007;49.252;8.904;2023-02-14T00:07:49;101678.75;;;1.16;100.00
10638;BME280;47007;49.252;8.904;2023-02-14T00:08:31;101708.63;;;1.28;100.00
10638;BME280;47007;49.252;8.904;2023-02-14T00:09:15;101691.81;;;1.16;100.00
10638;BME280;47007;49.252;8.904;2023-02-14T00:09:57;101703.72;;;1.22;100.00
10638;BME280;47007;49.252;8.904;2023-02-14T00:10:39;101680.06;;;1.07;100.00
10638;BME280;47007;49.252;8.904;2023-02-14T00:11:20;101678.78;;;0.99;100.00
10638;BME280;47007;49.252;8.904;2023-02-14T00:12:03;101695.75;;;1.07;100.00
10638;BME280;47007;49.252;8.904;2023-02-14T00:12:45;101671.38;;;0.90;100.00
10638;BME280;47007;49.252;8.904;2023-02-14T00:13:27;101704.63;;;1.03;100.00
10638;BME280;47007;49.252;8.904;2023-02-14T00:14:09;101682.75;;;0.89;100.00
10638;BME280;47007;49.252;8.904;2023-02-14T00:15:09;101662.53;;;0.75;100.00
10638;BME280;47007;49.252;8.904;2023-02-14T00:16:03;101676.34;;;0.77;100.00
10638;BME280;47007;49.252;8.904;2023-02-14T00:16:45;101703.56;;;0.90;100.00
10638;BME280;47007;49.252;8.904;2023-02-14T00:17:27;101663.13;;;0.63;100.00
10638;BME280;47007;49.252;8.904;2023-02-14T00:18:09;101702.84;;;0.87;100.00
10638;BME280;47007;49.252;8.904;2023-02-14T00:18:52;101677.72;;;0.67;100.00
10638;BME280;47007;49.252;8.904;2023-02-14T00:19:45;101707.06;;;0.89;100.00
10638;BME280;47007;49.252;8.904;2023-02-14T00:20:27;101705.25;;;0.91;100.00
10638;BME280;47007;49.252;8.904;2023-02-14T00:21:09;101700.09;;;0.90;100.00
10638;BME280;47007;49.252;8.904;2023-02-14T00:21:51;101683.91;;;0.83;100.00
10638;BME280;47007;49.252;8.904;2023-02-14T00:22:33;101697.28;;;0.94;100.00
10638;BME280;47007;49.252;8.904;2023-02-14T00:23:15;101673.53;;;0.82;100.00
10638;BME280;47007;49.252;8.904;2023-02-14T00:23:56;101695.03;;;1.04;100.00
10638;BME280;47007;49.252;8.904;2023-02-14T00:24:38;101674.63;;;0.95;100.00
10638;BME280;47007;49.252;8.904;2023-02-14T00:25:20;101688.13;;;1.03;100.00
10638;BME280;47007;49.252;8.904;2023-02-14T00:26:02;101706.78;;;1.13;100.00
10638;BME280;47007;49.252;8.904;2023-02-14T00:26:44;101697.25;;;1.12;100.00
10638;BME280;47007;49.252;8.904;2023-02-14T00:27:25;101692.44;;;1.04;100.00
10638;BME280;47007;49.252;8.904;2023-02-14T00:28:07;101704.34;;;1.10;100.00
10638;BME280;47007;49.252;8.904;2023-02-14T00:28:49;101706.03;;;1.11;100.00
10638;BME280;47007;49.252;8.904;2023-02-14T00:29:31;101692.97;;;1.11;100.00
10638;BME280;47007;49.252;8.904;2023-02-14T00:30:15;101702.66;;;1.08;100.00
10638;BME280;47007;49.252;8.904;2023-02-14T00:30:57;101667.06;;;0.89;100.00
10638;BME280;47007;49.252;8.904;2023-02-14T00:31:40;101680.69;;;0.95;100.00
10638;BME280;47007;49.252;8.904;2023-02-14T00:32:22;101695.88;;;1.04;100.00
10638;BME280;47007;49.252;8.904;2023-02-14T00:33:07;101663.63;;;0.88;100.00
10638;BME280;47007;49.252;8.904;2023-02-14T00:33:49;101694.91;;;1.07;100.00
10638;BME280;47007;49.252;8.904;2023-02-14T00:34:30;101700.13;;;1.07;100.00
10638;BME280;47007;49.252;8.904;2023-02-14T00:35:13;101689.50;;;0.93;100.00
10638;BME280;47007;49.252;8.904;2023-02-14T00:35:55;101691.81;;;0.99;100.00
10638;BME280;47007;49.252;8.904;2023-02-14T00:36:37;101687.59;;;0.96;100.00
10638;BME280;47007;49.252;8.904;2023-02-14T00:37:19;101705.47;;;1.04;100.00
10638;BME280;47007;49.252;8.904;2023-02-14T00:38:01;101708.16;;;1.02;100.00
10638;BME280;47007;49.252;8.904;2023-02-14T00:38:42;101680.69;;;0.95;100.00
10638;BME280;47007;49.252;8.904;2023-02-14T00:39:24;101694.34;;;1.00;100.00
10638;BME280;47007;49.252;8.904;2023-02-14T00:40:06;101700.25;;;1.04;100.00
10638;BME280;47007;49.252;8.904;2023-02-14T00:40:48;101696.81;;;1.03;100.00
10638;BME280;47007;49.252;8.904;2023-02-14T00:41:31;101696.81;;;1.03;100.00
10638;BME280;47007;49.252;8.904;2023-02-14T00:42:13;101670.53;;;0.89;100.00
10638;BME280;47007;49.252;8.904;2023-02-14T00:42:55;101682.53;;;0.93;100.00
10638;BME280;47007;49.252;8.904;2023-02-14T00:43:36;101704.88;;;0.99;100.00
10638;BME280;47007;49.252;8.904;2023-02-14T00:44:18;101696.22;;;0.98;100.00
10638;BME280;47007;49.252;8.904;2023-02-14T00:45:00;101698.97;;;0.95;100.00
10638;BME280;47007;49.252;8.904;2023-02-14T00:45:42;101691.28;;;0.92;100.00
10638;BME280;47007;49.252;8.904;2023-02-14T00:46:24;101705.88;;;0.96;100.00
10638;BME280;47007;49.252;8.904;2023-02-14T00:47:06;101699.88;;;0.94;100.00
10638;BME280;47007;49.252;8.904;2023-02-14T00:47:48;101706.00;;;0.93;100.00
10638;BME280;47007;49.252;8.904;2023-02-14T00:48:32;101709.47;;;0.94;100.00
10638;BME280;47007;49.252;8.904;2023-02-14T00:49:13;101710.31;;;0.94;100.00
10638;BME280;47007;49.252;8.904;2023-02-14T00:49:55;101711.09;;;0.96;100.00
10638;BME280;47007;49.252;8.904;2023-02-14T00:50:43;101708.47;;;0.96;100.00
10638;BME280;47007;49.252;8.904;2023-02-14T00:51:27;101711.94;;;0.97;100.00
10638;BME280;47007;49.252;8.904;2023-02-14T00:52:09;101706.66;;;0.98;100.00
10638;BME280;47007;49.252;8.904;2023-02-14T00:52:51;101705.81;;;0.98;100.00
10638;BME280;47007;49.252;8.904;2023-02-14T00:53:33;101717.09;;;0.98;100.00
10638;BME280;47007;49.252;8.904;2023-02-14T00:54:15;101705.94;;;0.95;100.00
10638;BME280;47007;49.252;8.904;2023-02-14T00:54:57;101710.09;;;0.99;100.00
10638;BME280;47007;49.252;8.904;2023-02-14T00:55:39;101703.94;;;1.00;100.00
10638;BME280;47007;49.252;8.904;2023-02-14T00:56:22;101708.25;;;1.01;100.00
10638;BME280;47007;49.252;8.904;2023-02-14T00:57:03;101713.38;;;1.02;100.00
10638;BME280;47007;49.252;8.904;2023-02-14T00:57:45;101713.25;;;1.05;100.00
10638;BME280;47007;49.252;8.904;2023-02-14T00:58:27;101693.59;;;0.98;100.00
10638;BME280;47007;49.252;8.904;2023-02-14T00:59:09;101692.03;;;0.94;100.00
10638;BME280;47007;49.252;8.904;2023-02-14T00:59:50;101712.41;;;1.05;100.00
10638;BME280;47007;49.252;8.904;2023-02-14T01:00:32;101685.91;;;0.95;100.00
10638;BME280;47007;49.252;8.904;2023-02-14T01:01:15;101710.41;;;1.10;100.00
10638;BME280;47007;49.252;8.904;2023-02-14T01:01:58;101686.34;;;1.03;100.00
10638;BME280;47007;49.252;8.904;2023-02-14T01:02:39;101708.25;;;1.18;100.00
10638;BME280;47007;49.252;8.904;2023-02-14T01:03:22;101705.25;;;1.26;100.00
10638;BME280;47007;49.252;8.904;2023-02-14T01:04:04;101682.59;;;1.09;100.00
10638;BME280;47007;49.252;8.904;2023-02-14T01:04:46;101707.84;;;1.26;100.00
10638;BME280;47007;49.252;8.904;2023-02-14T01:05:28;101712.16;;;1.27;100.00
10638;BME280;47007;49.252;8.904;2023-02-14T01:06:10;101697.03;;;1.16;100.00
10638;BME280;47007;49.252;8.904;2023-02-14T01:06:54;101704.72;;;1.19;100.00
10638;BME280;47007;49.252;8.904;2023-02-14T01:07:36;101701.34;;;1.17;100.00
10638;BME280;47007;49.252;8.904;2023-02-14T01:08:18;101707.94;;;1.24;100.00
10638;BME280;47007;49.252;8.904;2023-02-14T01:09:00;101710.66;;;1.23;100.00
10638;BME280;47007;49.252;8.904;2023-02-14T01:09:42;101694.44;;;1.16;100.00
10638;BME280;47007;49.252;8.904;2023-02-14T01:10:24;101683.38;;;1.11;100.00
10638;BME280;47007;49.252;8.904;2023-02-14T01:11:17;101715.41;;;1.32;100.00
10638;BME280;47007;49.252;8.904;2023-02-14T01:11:59;101711.72;;;1.36;100.00
10638;BME280;47007;49.252;8.904;2023-02-14T01:12:41;101688.06;;;1.22;100.00
10638;BME280;47007;49.252;8.904;2023-02-14T01:13:23;101716.69;;;1.40;100.00
10638;BME280;47007;49.252;8.904;2023-02-14T01:14:05;101713.09;;;1.43;100.00
10638;BME280;47007;49.252;8.904;2023-02-14T01:14:47;101724.31;;;1.45;100.00
10638;BME280;47007;49.252;8.904;2023-02-14T01:15:30;101706.94;;;1.44;100.00
10638;BME280;47007;49.252;8.904;2023-02-14T01:16:14;101705.03;;;1.48;100.00
10638;BME280;47007;49.252;8.904;2023-02-14T01:16:56;101702.47;;;1.46;100.00
10638;BME280;47007;49.252;8.904;2023-02-14T01:17:38;101717.69;;;1.55;100.00
10638;BME280;47007;49.252;8.904;2023-02-14T01:18:20;101686.59;;;1.33;100.00
10638;BME280;47007;49.252;8.904;2023-02-14T01:19:02;101710.97;;;1.50;100.00
10638;BME280;47007;49.252;8.904;2023-02-14T01:19:44;101710.06;;;1.51;100.00
10638;BME280;47007;49.252;8.904;2023-02-14T01:20:26;101717.44;;;1.60;100.00
10638;BME280;47007;49.252;8.904;2023-02-14T01:21:20;101714.00;;;1.59;100.00
10638;BME280;47007;49.252;8.904;2023-02-14T01:22:03;101717.59;;;1.57;100.00
10638;BME280;47007;49.252;8.904;2023-02-14T01:22:44;101672.69;;;1.33;100.00
10638;BME280;47007;49.252;8.904;2023-02-14T01:23:26;101699.69;;;1.49;100.00
10638;BME280;47007;49.252;8.904;2023-02-14T01:24:09;101719.53;;;1.53;100.00
10638;BME280;47007;49.252;8.904;2023-02-14T01:24:52;101715.38;;;1.49;100.00
10638;BME280;47007;49.252;8.904;2023-02-14T01:25:36;101718.16;;;1.46;100.00
10638;BME280;47007;49.252;8.904;2023-02-14T01:26:19;101713.84;;;1.45;100.00
10638;BME280;47007;49.252;8.904;2023-02-14T01:27:01;101680.81;;;1.27;100.00
10638;BME280;47007;49.252;8.904;2023-02-14T01:27:43;101672.69;;;1.16;100.00
10638;BME280;47007;49.252;8.904;2023-02-14T01:28:27;101717.47;;;1.42;100.00
10638;BME280;47007;49.252;8.904;2023-02-14T01:29:08;101706.31;;;1.39;100.00
10638;BME280;47007;49.252;8.904;2023-02-14T01:29:50;101706.50;;;1.36;100.00
10638;BME280;47007;49.252;8.904;2023-02-14T01:30:32;101708.09;;;1.38;100.00
10638;BME280;47007;49.252;8.904;2023-02-14T01:31:19;101682.84;;;1.22;100.00
10638;BME280;47007;49.252;8.904;2023-02-14T01:32:02;101717.47;;;1.42;100.00
10638;BME280;47007;49.252;8.904;2023-02-14T01:32:44;101718.16;;;1.46;100.00
10638;BME280;47007;49.252;8.904;2023-02-14T01:33:25;101708.78;;;1.42;100.00
10638;BME280;47007;49.252;8.904;2023-02-14T01:34:07;101707.78;;;1.44;100.00
10638;BME280;47007;49.252;8.904;2023-02-14T01:34:49;101711.38;;;1.42;100.00
10638;BME280;47007;49.252;8.904;2023-02-14T01:35:31;101714.78;;;1.44;100.00
10638;BME280;47007;49.252;8.904;2023-02-14T01:36:30;101715.53;;;1.46;100.00
10638;BME280;47007;49.252;8.904;2023-02-14T01:37:12;101715.38;;;1.49;100.00
10638;BME280;47007;49.252;8.904;2023-02-14T01:37:55;101677.97;;;1.31;100.00
10638;BME280;47007;49.252;8.904;2023-02-14T01:38:36;101710.75;;;1.54;100.00
10638;BME280;47007;49.252;8.904;2023-02-14T01:39:18;101679.34;;;1.38;100.00
10638;BME280;47007;49.252;8.904;2023-02-14T01:40:00;101712.38;;;1.57;100.00
10638;BME280;47007;49.252;8.904;2023-02-14T01:40:43;101695.06;;;1.54;100.00
10638;BME280;47007;49.252;8.904;2023-02-14T01:41:28;101706.38;;;1.55;100.00
10638;BME280;47007;49.252;8.904;2023-02-14T01:42:10;101708.28;;;1.51;100.00
10638;BME280;47007;49.252;8.904;2023-02-14T01:42:52;101710.69;;;1.56;100.00
10638;BME280;47007;49.252;8.904;2023-02-14T01:45:22;101718.13;;;1.63;100.00
10638;BME280;47007;49.252;8.904;2023-02-14T01:46:07;101710.28;;;1.63;100.00
10638;BME280;47007;49.252;8.904;2023-02-14T01:46:49;101705.03;;;1.63;100.00
10638;BME280;47007;49.252;8.904;2023-02-14T01:47:34;101704.97;;;1.65;100.00
10638;BME280;47007;49.252;8.904;2023-02-14T01:48:19;101712.75;;;1.66;100.00
10638;BME280;47007;49.252;8.904;2023-02-14T01:49:07;101707.59;;;1.65;100.00
10638;BME280;47007;49.252;8.904;2023-02-14T01:49:54;101708.75;;;1.59;100.00
10638;BME280;47007;49.252;8.904;2023-02-14T01:50:40;101711.13;;;1.64;100.00
10638;BME280;47007;49.252;8.904;2023-02-14T01:51:24;101708.44;;;1.65;100.00
10638;BME280;47007;49.252;8.904;2023-02-14T01:52:15;101704.75;;;1.69;100.00
10638;BME280;47007;49.252;8.904;2023-02-14T01:53:02;101703.19;;;1.65;100.00
10638;BME280;47007;49.252;8.904;2023-02-14T01:53:45;101685.53;;;1.53;100.00
10638;BME280;47007;49.252;8.904;2023-02-14T01:54:28;101711.66;;;1.70;100.00
10638;BME280;47007;49.252;8.904;2023-02-14T01:55:15;101695.44;;;1.64;100.00
10638;BME280;47007;49.252;8.904;2023-02-14T01:56:02;101713.88;;;1.78;100.00
10638;BME280;47007;49.252;8.904;2023-02-14T01:56:48;101695.22;;;1.68;100.00
10638;BME280;47007;49.252;8.904;2023-02-14T01:57:44;101680.88;;;1.60;100.00
10638;BME280;47007;49.252;8.904;2023-02-14T01:58:30;101684.47;;;1.57;100.00
10638;BME280;47007;49.252;8.904;2023-02-14T01:59:18;101677.84;;;1.50;100.00
10638;BME280;47007;49.252;8.904;2023-02-14T02:00:03;101710.13;;;1.66;100.00
10638;BME280;47007;49.252;8.904;2023-02-14T02:01:04;101710.75;;;1.71;100.00
10638;BME280;47007;49.252;8.904;2023-02-14T02:01:47;101694.59;;;1.63;100.00
10638;BME280;47007;49.252;8.904;2023-02-14T02:02:31;101692.75;;;1.65;100.00
10638;BME280;47007;49.252;8.904;2023-02-14T02:03:14;101693.81;;;1.61;100.00
10638;BME280;47007;49.252;8.904;2023-02-14T02:04:01;101685.31;;;1.58;100.00
10638;BME280;47007;49.252;8.904;2023-02-14T02:04:46;101718.59;;;1.71;100.00
10638;BME280;47007;49.252;8.904;2023-02-14T02:05:28;101688.00;;;1.56;100.00
10638;BME280;47007;49.252;8.904;2023-02-14T02:06:14;101712.44;;;1.72;100.00
10638;BME280;47007;49.252;8.904;2023-02-14T02:07:03;101689.56;;;1.60;100.00
10638;BME280;47007;49.252;8.904;2023-02-14T02:07:45;101711.31;;;1.76;100.00
10638;BME280;47007;49.252;8.904;2023-02-14T02:08:27;101708.56;;;1.79;100.00
10638;BME280;47007;49.252;8.904;2023-02-14T02:09:16;101713.88;;;1.78;100.00
10638;BME280;47007;49.252;8.904;2023-02-14T02:10:02;101672.25;;;1.58;100.00
10638;BME280;47007;49.252;8.904;2023-02-14T02:10:44;101707.56;;;1.82;100.00
10638;BME280;47007;49.252;8.904;2023-02-14T02:11:26;101707.41;;;1.85;100.00
10638;BME280;47007;49.252;8.904;2023-02-14T02:12:08;101712.53;;;1.87;100.00
10638;BME280;47007;49.252;8.904;2023-02-14T02:12:51;101704.78;;;1.85;100.00
10638;BME280;47007;49.252;8.904;2023-02-14T02:13:33;101700.56;;;1.83;100.00
10638;BME280;47007;49.252;8.904;2023-02-14T02:14:18;101709.16;;;1.85;100.00
10638;BME280;47007;49.252;8.904;2023-02-14T02:15:01;101708.13;;;1.87;100.00
10638;BME280;47007;49.252;8.904;2023-02-14T02:15:53;101702.25;;;1.84;100.00
10638;BME280;47007;49.252;8.904;2023-02-14T02:17:51;101710.56;;;1.74;100.00
10638;BME280;47007;49.252;8.904;2023-02-14T02:18:55;101711.16;;;1.79;100.00
10638;BME280;47007;49.252;8.904;2023-02-14T02:23:16;101708.41;;;1.83;100.00
10638;BME280;47007;49.252;8.904;2023-02-14T02:26:42;101682.25;;;1.83;100.00
10638;BME280;47007;49.252;8.904;2023-02-14T02:32:02;101701.59;;;1.96;100.00
10638;BME280;47007;49.252;8.904;2023-02-14T02:34:11;101697.38;;;1.93;100.00
10638;BME280;47007;49.252;8.904;2023-02-14T02:37:18;101702.59;;;1.93;100.00
10638;BME280;47007;49.252;8.904;2023-02-14T02:38:24;101702.59;;;1.93;100.00
10638;BME280;47007;49.252;8.904;2023-02-14T02:41:27;101700.97;;;1.91;100.00
10638;BME280;47007;49.252;8.904;2023-02-14T02:42:34;101693.28;;;1.88;100.00
10638;BME280;47007;49.252;8.904;2023-02-14T02:43:24;101698.53;;;1.88;100.00
10638;BME280;47007;49.252;8.904;2023-02-14T02:44:26;101678.09;;;1.78;100.00
10638;BME280;47007;49.252;8.904;2023-02-14T02:45:19;101691.59;;;1.87;100.00
10638;BME280;47007;49.252;8.904;2023-02-14T02:47:31;101693.28;;;1.88;100.00
10638;BME280;47007;49.252;8.904;2023-02-14T02:48:16;101690.75;;;1.86;100.00
10638;BME280;47007;49.252;8.904;2023-02-14T02:49:12;101670.84;;;1.68;100.00
10638;BME280;47007;49.252;8.904;2023-02-14T02:51:04;101689.00;;;1.87;100.00
10638;BME280;47007;49.252;8.904;2023-02-14T02:52:14;101694.16;;;1.88;100.00
10638;BME280;47007;49.252;8.904;2023-02-14T02:53:43;101689.75;;;1.89;100.00
10638;BME280;47007;49.252;8.904;2023-02-14T02:54:42;101676.41;;;1.77;100.00
10638;BME280;47007;49.252;8.904;2023-02-14T02:57:08;101690.94;;;1.83;100.00
10638;BME280;47007;49.252;8.904;2023-02-14T02:57:53;101679.81;;;1.79;100.00
10638;BME280;47007;49.252;8.904;2023-02-14T02:58:39;101690.94;;;1.83;100.00
10638;BME280;47007;49.252;8.904;2023-02-14T02:59:30;101681.81;;;1.74;100.00
10638;BME280;47007;49.252;8.904;2023-02-14T03:00:14;101677.69;;;1.70;100.00
10638;BME280;47007;49.252;8.904;2023-02-14T03:00:58;101692.09;;;1.77;100.00
10638;BME280;47007;49.252;8.904;2023-02-14T03:02:49;101683.06;;;1.67;100.00
10638;BME280;47007;49.252;8.904;2023-02-14T03:03:54;101685.75;;;1.66;100.00
10638;BME280;47007;49.252;8.904;2023-02-14T03:04:59;101694.28;;;1.69;100.00
10638;BME280;47007;49.252;8.904;2023-02-14T03:05:42;101680.59;;;1.64;100.00
10638;BME280;47007;49.252;8.904;2023-02-14T03:06:24;101690.56;;;1.73;100.00
10638;BME280;47007;49.252;8.904;2023-02-14T03:07:06;101674.31;;;1.68;100.00
10638;BME280;47007;49.252;8.904;2023-02-14T03:08:11;101687.41;;;1.84;100.00
10638;BME280;47007;49.252;8.904;2023-02-14T03:08:52;101683.34;;;1.78;100.00
10638;BME280;47007;49.252;8.904;2023-02-14T03:10:24;101689.56;;;1.76;100.00
10638;BME280;47007;49.252;8.904;2023-02-14T03:11:08;101696.75;;;1.72;100.00
10638;BME280;47007;49.252;8.904;2023-02-14T03:12:05;101703.56;;;1.75;100.00
10638;BME280;47007;49.252;8.904;2023-02-14T03:13:51;101702.56;;;1.77;100.00
10638;BME280;47007;49.252;8.904;2023-02-14T03:15:20;101698.88;;;1.82;100.00
10638;BME280;47007;49.252;8.904;2023-02-14T03:16:34;101700.88;;;1.76;100.00
10638;BME280;47007;49.252;8.904;2023-02-14T03:17:24;101703.56;;;1.75;100.00
10638;BME280;47007;49.252;8.904;2023-02-14T03:18:36;101696.63;;;1.74;100.00
10638;BME280;47007;49.252;8.904;2023-02-14T03:20:32;101662.38;;;1.63;100.00
10638;BME280;47007;49.252;8.904;2023-02-14T03:23:56;101688.56;;;1.78;100.00
10638;BME280;47007;49.252;8.904;2023-02-14T03:24:46;101690.09;;;1.83;100.00
10638;BME280;47007;49.252;8.904;2023-02-14T03:25:52;101689.34;;;1.80;100.00
10638;BME280;47007;49.252;8.904;2023-02-14T03:27:41;101686.28;;;1.88;100.00
10638;BME280;47007;49.252;8.904;2023-02-14T03:28:41;101678.72;;;1.84;100.00
10638;BME280;47007;49.252;8.904;2023-02-14T03:30:38;101691.59;;;1.87;100.00
10638;BME280;47007;49.252;8.904;2023-02-14T03:31:36;101687.22;;;1.87;100.00
10638;BME280;47007;49.252;8.904;2023-02-14T03:33:17;101686.06;;;1.93;100.00
10638;BME280;47007;49.252;8.904;2023-02-14T03:34:07;101686.84;;;1.95;100.00
10638;BME280;47007;49.252;8.904;2023-02-14T03:35:11;101679.91;;;1.94;100.00
10638;BME280;47007;49.252;8.904;2023-02-14T03:36:51;101687.25;;;2.03;100.00
10638;BME280;47007;49.252;8.904;2023-02-14T03:39:03;101674.25;;;2.01;100.00
10638;BME280;47007;49.252;8.904;2023-02-14T03:39:57;101656.38;;;1.94;100.00
10638;BME280;47007;49.252;8.904;2023-02-14T03:40:41;101675.63;;;2.08;100.00
10638;BME280;47007;49.252;8.904;2023-02-14T03:41:28;101675.63;;;2.08;100.00
10638;BME280;47007;49.252;8.904;2023-02-14T03:42:17;101676.28;;;2.12;100.00
10638;BME280;47007;49.252;8.904;2023-02-14T03:43:04;101677.13;;;2.12;100.00
10638;BME280;47007;49.252;8.904;2023-02-14T03:43:52;101651.56;;;2.02;100.00
10638;BME280;47007;49.252;8.904;2023-02-14T03:44:36;101677.66;;;2.19;100.00
10638;BME280;47007;49.252;8.904;2023-02-14T03:45:34;101675.19;;;2.16;100.00
10638;BME280;47007;49.252;8.904;2023-02-14T03:46:31;101680.19;;;2.21;100.00
10638;BME280;47007;49.252;8.904;2023-02-14T03:47:19;101670.88;;;2.15;100.00
10638;BME280;47007;49.252;8.904;2023-02-14T03:48:07;101674.88;;;2.06;100.00
10638;BME280;47007;49.252;8.904;2023-02-14T03:48:51;101672.47;;;2.02;100.00
10638;BME280;47007;49.252;8.904;2023-02-14T03:49:39;101658.00;;;1.96;100.00
10638;BME280;47007;49.252;8.904;2023-02-14T03:50:22;101686.09;;;2.08;100.00
10638;BME280;47007;49.252;8.904;2023-02-14T03:51:08;101683.56;;;2.07;100.00
10638;BME280;47007;49.252;8.904;2023-02-14T03:51:53;101667.69;;;1.94;100.00
10638;BME280;47007;49.252;8.904;2023-02-14T03:52:36;101668.00;;;1.88;100.00
10638;BME280;47007;49.252;8.904;2023-02-14T03:53:21;101670.88;;;1.84;100.00
10638;BME280;47007;49.252;8.904;2023-02-14T03:54:06;101673.72;;;1.79;100.00
10638;BME280;47007;49.252;8.904;2023-02-14T03:54:55;101682.25;;;1.83;100.00
10638;BME280;47007;49.252;8.904;2023-02-14T03:55:54;101685.72;;;1.83;100.00
10638;BME280;47007;49.252;8.904;2023-02-14T03:56:42;101686.28;;;1.88;100.00
10638;BME280;47007;49.252;8.904;2023-02-14T03:57:52;101679.91;;;1.94;100.00
10638;BME280;47007;49.252;8.904;2023-02-14T03:58:38;101655.44;;;1.79;100.00
10638;BME280;47007;49.252;8.904;2023-02-14T03:59:23;101683.03;;;2.00;100.00
10638;BME280;47007;49.252;8.904;2023-02-14T04:00:05;101649.69;;;1.88;100.00
10638;BME280;47007;49.252;8.904;2023-02-14T04:01:00;101660.00;;;1.91;100.00
10638;BME280;47007;49.252;8.904;2023-02-14T04:01:48;101679.41;;;2.03;100.00
10638;BME280;47007;49.252;8.904;2023-02-14T04:02:38;101679.47;;;2.01;100.00
10638;BME280;47007;49.252;8.904;2023-02-14T04:03:22;101682.94;;;2.02;100.00
10638;BME280;47007;49.252;8.904;2023-02-14T04:04:06;101659.84;;;1.94;100.00
10638;BME280;47007;49.252;8.904;2023-02-14T04:04:50;101676.03;;;2.01;100.00
10638;BME280;47007;49.252;8.904;2023-02-14T04:05:33;101658.53;;;1.86;100.00
10638;BME280;47007;49.252;8.904;2023-02-14T04:06:18;101691.91;;;1.98;100.00
10638;BME280;47007;49.252;8.904;2023-02-14T04:07:15;101686.75;;;1.96;100.00
10638;BME280;47007;49.252;8.904;2023-02-14T04:07:57;101681.84;;;1.90;100.00
10638;BME280;47007;49.252;8.904;2023-02-14T04:08:39;101686.84;;;1.95;100.00
10638;BME280;47007;49.252;8.904;2023-02-14T04:09:21;101652.03;;;1.77;100.00
10638;BME280;47007;49.252;8.904;2023-02-14T04:10:03;101677.44;;;1.91;100.00
10638;BME280;47007;49.252;8.904;2023-02-14T04:10:48;101690.72;;;2.03;100.00
10638;BME280;47007;49.252;8.904;2023-02-14T04:11:32;101677.97;;;1.97;100.00
10638;BME280;47007;49.252;8.904;2023-02-14T04:12:16;101684.31;;;2.09;100.00
10638;BME280;47007;49.252;8.904;2023-02-14T04:13:04;101678.25;;;2.08;100.00
10638;BME280;47007;49.252;8.904;2023-02-14T04:13:46;101660.59;;;1.96;100.00
10638;BME280;47007;49.252;8.904;2023-02-14T04:14:28;101667.34;;;2.00;100.00
10638;BME280;47007;49.252;8.904;2023-02-14T04:15:12;101659.31;;;1.88;100.00
10638;BME280;47007;49.252;8.904;2023-02-14T04:15:53;101670.13;;;1.97;100.00
10638;BME280;47007;49.252;8.904;2023-02-14T04:16:35;101674.53;;;1.97;100.00
10638;BME280;47007;49.252;8.904;2023-02-14T04:17:37;101679.47;;;1.86;100.00
10638;BME280;47007;49.252;8.904;2023-02-14T04:18:38;101659.53;;;1.67;100.00
10638;BME280;47007;49.252;8.904;2023-02-14T04:19:38;101678.34;;;1.74;100.00
10638;BME280;47007;49.252;8.904;2023-02-14T04:20:20;101674.88;;;1.73;100.00
10638;BME280;47007;49.252;8.904;2023-02-14T04:21:01;101655.66;;;1.59;100.00
10638;BME280;47007;49.252;8.904;2023-02-14T04:21:43;101671.69;;;1.68;100.00
10638;BME280;47007;49.252;8.904;2023-02-14T04:22:25;101657.34;;;1.60;100.00
10638;BME280;47007;49.252;8.904;2023-02-14T04:23:07;101661.63;;;1.61;100.00
10638;BME280;47007;49.252;8.904;2023-02-14T04:23:49;101609.22;;;1.31;100.00
10638;BME280;47007;49.252;8.904;2023-02-14T04:24:31;101674.16;;;1.71;100.00
10638;BME280;47007;49.252;8.904;2023-02-14T04:25:13;101646.19;;;1.56;100.00
10638;BME280;47007;49.252;8.904;2023-02-14T04:25:55;101667.31;;;1.69;100.00
10638;BME280;47007;49.252;8.904;2023-02-14T04:26:37;101676.75;;;1.71;100.00
10638;BME280;47007;49.252;8.904;2023-02-14T04:27:18;101675.06;;;1.70;100.00
10638;BME280;47007;49.252;8.904;2023-02-14T04:28:00;101661.03;;;1.56;100.00
10638;BME280;47007;49.252;8.904;2023-02-14T04:28:42;101651.34;;;1.58;100.00
10638;BME280;47007;49.252;8.904;2023-02-14T04:29:23;101670.69;;;1.71;100.00
10638;BME280;47007;49.252;8.904;2023-02-14T04:30:06;101674.72;;;1.76;100.00
10638;BME280;47007;49.252;8.904;2023-02-14T04:30:48;101662.84;;;1.71;100.00
10638;BME280;47007;49.252;8.904;2023-02-14T04:31:30;101651.00;;;1.64;100.00
10638;BME280;47007;49.252;8.904;2023-02-14T04:32:14;101668.72;;;1.74;100.00
10638;BME280;47007;49.252;8.904;2023-02-14T04:32:56;101644.66;;;1.52;100.00
10638;BME280;47007;49.252;8.904;2023-02-14T04:33:38;101641.28;;;1.50;100.00
10638;BME280;47007;49.252;8.904;2023-02-14T04:34:19;101669.16;;;1.67;100.00
10638;BME280;47007;49.252;8.904;2023-02-14T04:35:01;101658.94;;;1.62;100.00